Current | Forecast
Updated: 12:00 PM EEST on May 21, 2018
Observed at Odessa, Republic of Moldova
Temperature 20°C
Humidity 35%
Dew Point 4°C
Wind North at 18 km/h
Pressure 1021 hPa (Steady)
Conditions Clear
Visibility -
UV N/A
Clouds
Yesterday's Maximum 24°C
Yesterday's Minimum 16°C approx.
Yesterday's Cooling Degree Days 3 approx.
Sunrise5:20 AM EEST
Sunset8:33 PM EEST
Moon Rise11:26 AM EEST
Moon Set1:26 AM EEST
Moon PhaseMoon Phase
Waxing Crescent
Raw METARMETAR UKOO 210900Z 01005MPS 320V060 CAVOK 20/04 Q1021 R34/090060 NOSIG


Monday
. High: 62° F.
Tuesday
. High: 68° F.
Wednesday
. High: 68° F.
Thursday
. High: 69° F.
Friday
. High: 66° F.
Saturday
. High: 57° F.
Sunday
. High: 64° F.
Monday
. High: 69° F.

Units: English | Metric

Find the Weather for any City, State or Zipcode, or Country:

U.S. State List | Severe Weather | Tropical Storms | Ski Conditions
United States | Canada | Central America | South America | Asia | Europe | Australia | Africa | Islands

Weather Underground

© Copyright 2018
The Weather Company, LLC